sensor_id;sensor_type;location;lat;lon;timestamp;P1;durP1;ratioP1;P2;durP2;ratioP2
47089;SDS011;32840;52.516;13.294;2022-07-21T00:01:13;11.05;;;6.30;;
47089;SDS011;32840;52.516;13.294;2022-07-21T00:03:58;11.73;;;6.18;;
47089;SDS011;32840;52.516;13.294;2022-07-21T00:06:44;10.80;;;5.75;;
47089;SDS011;32840;52.516;13.294;2022-07-21T00:09:30;9.00;;;5.90;;
47089;SDS011;32840;52.516;13.294;2022-07-21T00:12:14;7.47;;;5.32;;
47089;SDS011;32840;52.516;13.294;2022-07-21T00:14:59;6.90;;;4.88;;
47089;SDS011;32840;52.516;13.294;2022-07-21T00:17:45;10.25;;;5.47;;
47089;SDS011;32840;52.516;13.294;2022-07-21T00:20:29;9.85;;;6.13;;
47089;SDS011;32840;52.516;13.294;2022-07-21T00:23:15;9.10;;;5.90;;
47089;SDS011;32840;52.516;13.294;2022-07-21T00:26:01;7.28;;;5.60;;
47089;SDS011;32840;52.516;13.294;2022-07-21T00:28:47;10.60;;;5.70;;
47089;SDS011;32840;52.516;13.294;2022-07-21T00:31:33;10.18;;;5.78;;
47089;SDS011;32840;52.516;13.294;2022-07-21T00:34:19;10.30;;;5.63;;
47089;SDS011;32840;52.516;13.294;2022-07-21T00:37:04;7.90;;;5.97;;
47089;SDS011;32840;52.516;13.294;2022-07-21T00:39:50;8.63;;;5.70;;
47089;SDS011;32840;52.516;13.294;2022-07-21T00:42:37;7.40;;;5.38;;
47089;SDS011;32840;52.516;13.294;2022-07-21T00:45:22;12.00;;;6.07;;
47089;SDS011;32840;52.516;13.294;2022-07-21T00:48:07;12.07;;;6.35;;
47089;SDS011;32840;52.516;13.294;2022-07-21T00:50:55;10.90;;;6.53;;
47089;SDS011;32840;52.516;13.294;2022-07-21T00:53:40;13.48;;;7.95;;
47089;SDS011;32840;52.516;13.294;2022-07-21T00:56:25;9.93;;;6.60;;
47089;SDS011;32840;52.516;13.294;2022-07-21T00:59:09;11.77;;;6.82;;
47089;SDS011;32840;52.516;13.294;2022-07-21T01:01:54;12.68;;;6.13;;
47089;SDS011;32840;52.516;13.294;2022-07-21T01:04:39;12.15;;;6.22;;
47089;SDS011;32840;52.516;13.294;2022-07-21T01:07:24;7.90;;;6.28;;
47089;SDS011;32840;52.516;13.294;2022-07-21T01:10:10;9.20;;;7.03;;
47089;SDS011;32840;52.516;13.294;2022-07-21T01:12:56;11.30;;;6.30;;
47089;SDS011;32840;52.516;13.294;2022-07-21T01:15:44;8.38;;;6.00;;
47089;SDS011;32840;52.516;13.294;2022-07-21T01:18:29;9.38;;;5.60;;
47089;SDS011;32840;52.516;13.294;2022-07-21T01:21:18;9.82;;;6.43;;
47089;SDS011;32840;52.516;13.294;2022-07-21T01:24:17;7.55;;;6.38;;
47089;SDS011;32840;52.516;13.294;2022-07-21T01:27:03;12.00;;;6.60;;
47089;SDS011;32840;52.516;13.294;2022-07-21T01:29:48;11.95;;;6.35;;
47089;SDS011;32840;52.516;13.294;2022-07-21T01:32:33;10.35;;;6.30;;
47089;SDS011;32840;52.516;13.294;2022-07-21T01:35:19;13.55;;;6.80;;
47089;SDS011;32840;52.516;13.294;2022-07-21T01:38:05;11.55;;;6.05;;
47089;SDS011;32840;52.516;13.294;2022-07-21T01:41:09;12.30;;;6.72;;
47089;SDS011;32840;52.516;13.294;2022-07-21T01:44:13;11.13;;;5.95;;
47089;SDS011;32840;52.516;13.294;2022-07-21T01:47:00;8.98;;;6.53;;
47089;SDS011;32840;52.516;13.294;2022-07-21T01:49:45;8.90;;;6.15;;
47089;SDS011;32840;52.516;13.294;2022-07-21T01:52:29;10.50;;;6.05;;
47089;SDS011;32840;52.516;13.294;2022-07-21T01:55:14;13.68;;;6.95;;
47089;SDS011;32840;52.516;13.294;2022-07-21T01:58:01;15.18;;;7.32;;
47089;SDS011;32840;52.516;13.294;2022-07-21T02:00:45;12.55;;;5.90;;
47089;SDS011;32840;52.516;13.294;2022-07-21T02:03:30;12.23;;;6.40;;
47089;SDS011;32840;52.516;13.294;2022-07-21T02:06:15;11.02;;;7.32;;
47089;SDS011;32840;52.516;13.294;2022-07-21T02:09:01;10.23;;;6.45;;
47089;SDS011;32840;52.516;13.294;2022-07-21T02:11:46;9.27;;;5.68;;
47089;SDS011;32840;52.516;13.294;2022-07-21T02:14:31;10.35;;;6.40;;
47089;SDS011;32840;52.516;13.294;2022-07-21T02:17:21;10.15;;;7.07;;
47089;SDS011;32840;52.516;13.294;2022-07-21T02:20:06;11.45;;;5.82;;
47089;SDS011;32840;52.516;13.294;2022-07-21T02:22:51;15.38;;;6.60;;
47089;SDS011;32840;52.516;13.294;2022-07-21T02:25:36;9.68;;;6.10;;
47089;SDS011;32840;52.516;13.294;2022-07-21T02:28:21;10.32;;;6.85;;
47089;SDS011;32840;52.516;13.294;2022-07-21T02:31:06;11.32;;;6.50;;
47089;SDS011;32840;52.516;13.294;2022-07-21T02:33:52;10.98;;;6.03;;
47089;SDS011;32840;52.516;13.294;2022-07-21T02:36:38;11.27;;;5.68;;
47089;SDS011;32840;52.516;13.294;2022-07-21T02:39:24;11.38;;;6.18;;
47089;SDS011;32840;52.516;13.294;2022-07-21T02:42:10;11.02;;;6.05;;
47089;SDS011;32840;52.516;13.294;2022-07-21T02:44:55;10.07;;;6.30;;
47089;SDS011;32840;52.516;13.294;2022-07-21T02:50:56;13.90;;;6.13;;
47089;SDS011;32840;52.516;13.294;2022-07-21T02:53:41;11.77;;;6.15;;
47089;SDS011;32840;52.516;13.294;2022-07-21T02:56:26;8.13;;;6.40;;
47089;SDS011;32840;52.516;13.294;2022-07-21T02:59:12;10.30;;;6.22;;
47089;SDS011;32840;52.516;13.294;2022-07-21T03:01:56;11.00;;;6.22;;
47089;SDS011;32840;52.516;13.294;2022-07-21T03:04:41;12.57;;;6.32;;
47089;SDS011;32840;52.516;13.294;2022-07-21T03:07:26;10.57;;;6.00;;
47089;SDS011;32840;52.516;13.294;2022-07-21T03:10:11;8.88;;;5.65;;
47089;SDS011;32840;52.516;13.294;2022-07-21T03:12:56;13.35;;;6.00;;
47089;SDS011;32840;52.516;13.294;2022-07-21T03:15:41;13.27;;;5.68;;
47089;SDS011;32840;52.516;13.294;2022-07-21T03:18:26;9.73;;;5.43;;
47089;SDS011;32840;52.516;13.294;2022-07-21T03:21:14;8.05;;;5.20;;
47089;SDS011;32840;52.516;13.294;2022-07-21T03:24:00;9.18;;;5.75;;
47089;SDS011;32840;52.516;13.294;2022-07-21T03:26:46;11.32;;;6.10;;
47089;SDS011;32840;52.516;13.294;2022-07-21T03:29:31;11.38;;;5.78;;
47089;SDS011;32840;52.516;13.294;2022-07-21T03:32:16;9.13;;;6.07;;
47089;SDS011;32840;52.516;13.294;2022-07-21T03:35:01;8.48;;;5.72;;
47089;SDS011;32840;52.516;13.294;2022-07-21T03:37:49;9.40;;;5.57;;
47089;SDS011;32840;52.516;13.294;2022-07-21T03:40:41;12.75;;;5.60;;
47089;SDS011;32840;52.516;13.294;2022-07-21T03:43:26;11.18;;;5.93;;
47089;SDS011;32840;52.516;13.294;2022-07-21T03:46:11;9.48;;;6.15;;
47089;SDS011;32840;52.516;13.294;2022-07-21T03:48:56;9.55;;;5.53;;
47089;SDS011;32840;52.516;13.294;2022-07-21T03:51:41;12.60;;;5.63;;
47089;SDS011;32840;52.516;13.294;2022-07-21T03:54:26;10.50;;;5.43;;
47089;SDS011;32840;52.516;13.294;2022-07-21T03:57:11;11.38;;;5.35;;
47089;SDS011;32840;52.516;13.294;2022-07-21T03:59:56;7.55;;;4.80;;
47089;SDS011;32840;52.516;13.294;2022-07-21T04:02:41;11.30;;;5.35;;
47089;SDS011;32840;52.516;13.294;2022-07-21T04:05:27;8.20;;;5.80;;
47089;SDS011;32840;52.516;13.294;2022-07-21T04:08:13;9.52;;;5.85;;
47089;SDS011;32840;52.516;13.294;2022-07-21T04:10:59;8.20;;;5.30;;
47089;SDS011;32840;52.516;13.294;2022-07-21T04:13:44;8.50;;;5.50;;
47089;SDS011;32840;52.516;13.294;2022-07-21T04:16:29;12.25;;;5.60;;
47089;SDS011;32840;52.516;13.294;2022-07-21T04:19:15;7.07;;;4.78;;
47089;SDS011;32840;52.516;13.294;2022-07-21T04:22:00;10.18;;;5.68;;
47089;SDS011;32840;52.516;13.294;2022-07-21T04:24:46;16.20;;;5.63;;
47089;SDS011;32840;52.516;13.294;2022-07-21T04:27:31;9.45;;;5.38;;
47089;SDS011;32840;52.516;13.294;2022-07-21T04:30:17;13.23;;;6.13;;
47089;SDS011;32840;52.516;13.294;2022-07-21T04:33:05;9.82;;;5.90;;
47089;SDS011;32840;52.516;13.294;2022-07-21T04:35:50;11.57;;;5.30;;
47089;SDS011;32840;52.516;13.294;2022-07-21T04:38:36;7.47;;;4.80;;
47089;SDS011;32840;52.516;13.294;2022-07-21T04:41:21;6.50;;;4.80;;
47089;SDS011;32840;52.516;13.294;2022-07-21T04:44:06;11.50;;;5.30;;
47089;SDS011;32840;52.516;13.294;2022-07-21T04:46:51;11.18;;;5.85;;
47089;SDS011;32840;52.516;13.294;2022-07-21T04:49:36;10.32;;;7.90;;
47089;SDS011;32840;52.516;13.294;2022-07-21T04:52:20;11.38;;;7.90;;
47089;SDS011;32840;52.516;13.294;2022-07-21T04:55:06;14.65;;;11.60;;
47089;SDS011;32840;52.516;13.294;2022-07-21T04:57:53;13.52;;;11.63;;
47089;SDS011;32840;52.516;13.294;2022-07-21T05:00:38;18.75;;;13.13;;
47089;SDS011;32840;52.516;13.294;2022-07-21T05:03:23;20.67;;;14.90;;
47089;SDS011;32840;52.516;13.294;2022-07-21T05:06:07;19.10;;;14.45;;
47089;SDS011;32840;52.516;13.294;2022-07-21T05:08:52;18.52;;;15.23;;
47089;SDS011;32840;52.516;13.294;2022-07-21T05:11:38;18.45;;;15.50;;
47089;SDS011;32840;52.516;13.294;2022-07-21T05:14:23;14.02;;;11.07;;
47089;SDS011;32840;52.516;13.294;2022-07-21T05:17:09;20.02;;;14.07;;
47089;SDS011;32840;52.516;13.294;2022-07-21T05:19:54;16.13;;;14.10;;
47089;SDS011;32840;52.516;13.294;2022-07-21T05:22:40;17.27;;;14.00;;
47089;SDS011;32840;52.516;13.294;2022-07-21T05:25:25;20.98;;;16.10;;
47089;SDS011;32840;52.516;13.294;2022-07-21T05:28:10;20.27;;;14.38;;
47089;SDS011;32840;52.516;13.294;2022-07-21T05:30:56;16.25;;;12.80;;
47089;SDS011;32840;52.516;13.294;2022-07-21T05:33:40;21.38;;;15.70;;
47089;SDS011;32840;52.516;13.294;2022-07-21T05:36:26;20.73;;;17.15;;
47089;SDS011;32840;52.516;13.294;2022-07-21T05:39:11;15.60;;;13.75;;
47089;SDS011;32840;52.516;13.294;2022-07-21T05:41:56;14.77;;;11.80;;
47089;SDS011;32840;52.516;13.294;2022-07-21T05:44:41;20.40;;;15.07;;
47089;SDS011;32840;52.516;13.294;2022-07-21T05:47:26;20.35;;;15.55;;
47089;SDS011;32840;52.516;13.294;2022-07-21T05:50:11;17.92;;;12.25;;
47089;SDS011;32840;52.516;13.294;2022-07-21T05:52:57;18.38;;;14.73;;
47089;SDS011;32840;52.516;13.294;2022-07-21T05:55:42;21.45;;;17.40;;
47089;SDS011;32840;52.516;13.294;2022-07-21T05:58:27;17.00;;;12.25;;
47089;SDS011;32840;52.516;13.294;2022-07-21T06:01:12;17.58;;;14.18;;
47089;SDS011;32840;52.516;13.294;2022-07-21T06:03:58;17.05;;;13.30;;
47089;SDS011;32840;52.516;13.294;2022-07-21T06:06:43;17.27;;;15.48;;
47089;SDS011;32840;52.516;13.294;2022-07-21T06:09:27;19.35;;;14.60;;
47089;SDS011;32840;52.516;13.294;2022-07-21T06:12:13;23.27;;;16.42;;
47089;SDS011;32840;52.516;13.294;2022-07-21T06:14:59;17.83;;;13.02;;
47089;SDS011;32840;52.516;13.294;2022-07-21T06:17:45;19.73;;;15.93;;
47089;SDS011;32840;52.516;13.294;2022-07-21T06:20:30;19.67;;;14.93;;
47089;SDS011;32840;52.516;13.294;2022-07-21T06:23:15;20.45;;;16.08;;
47089;SDS011;32840;52.516;13.294;2022-07-21T06:25:59;18.52;;;15.45;;
47089;SDS011;32840;52.516;13.294;2022-07-21T06:28:49;19.02;;;17.02;;
47089;SDS011;32840;52.516;13.294;2022-07-21T06:31:34;20.90;;;16.17;;
47089;SDS011;32840;52.516;13.294;2022-07-21T06:34:19;21.95;;;15.95;;
47089;SDS011;32840;52.516;13.294;2022-07-21T06:37:04;19.55;;;14.25;;
47089;SDS011;32840;52.516;13.294;2022-07-21T06:39:49;19.58;;;14.27;;
47089;SDS011;32840;52.516;13.294;2022-07-21T06:42:33;18.20;;;15.60;;
47089;SDS011;32840;52.516;13.294;2022-07-21T06:45:18;16.33;;;12.52;;
47089;SDS011;32840;52.516;13.294;2022-07-21T06:48:05;19.25;;;15.02;;
47089;SDS011;32840;52.516;13.294;2022-07-21T06:50:52;20.63;;;16.15;;
47089;SDS011;32840;52.516;13.294;2022-07-21T06:53:40;17.80;;;15.13;;
47089;SDS011;32840;52.516;13.294;2022-07-21T06:56:26;14.65;;;12.90;;
47089;SDS011;32840;52.516;13.294;2022-07-21T06:59:11;15.98;;;14.27;;
47089;SDS011;32840;52.516;13.294;2022-07-21T07:01:56;17.27;;;14.35;;
47089;SDS011;32840;52.516;13.294;2022-07-21T07:04:42;21.83;;;15.05;;
47089;SDS011;32840;52.516;13.294;2022-07-21T07:07:27;16.80;;;14.90;;
47089;SDS011;32840;52.516;13.294;2022-07-21T07:10:14;17.45;;;15.73;;
47089;SDS011;32840;52.516;13.294;2022-07-21T07:12:59;18.17;;;13.88;;
47089;SDS011;32840;52.516;13.294;2022-07-21T07:15:44;17.35;;;13.73;;
47089;SDS011;32840;52.516;13.294;2022-07-21T07:18:29;14.82;;;12.55;;
47089;SDS011;32840;52.516;13.294;2022-07-21T07:21:15;15.85;;;13.05;;
47089;SDS011;32840;52.516;13.294;2022-07-21T07:24:01;18.23;;;13.98;;
47089;SDS011;32840;52.516;13.294;2022-07-21T07:26:46;14.75;;;11.82;;
47089;SDS011;32840;52.516;13.294;2022-07-21T07:29:32;15.32;;;12.85;;
47089;SDS011;32840;52.516;13.294;2022-07-21T07:32:17;17.27;;;12.88;;
47089;SDS011;32840;52.516;13.294;2022-07-21T07:35:02;15.50;;;11.38;;
47089;SDS011;32840;52.516;13.294;2022-07-21T07:37:48;14.45;;;11.60;;
47089;SDS011;32840;52.516;13.294;2022-07-21T07:40:32;16.45;;;14.15;;
47089;SDS011;32840;52.516;13.294;2022-07-21T07:43:17;15.77;;;12.40;;
47089;SDS011;32840;52.516;13.294;2022-07-21T07:46:02;17.23;;;13.73;;
47089;SDS011;32840;52.516;13.294;2022-07-21T07:48:50;18.50;;;11.57;;
47089;SDS011;32840;52.516;13.294;2022-07-21T07:51:35;12.48;;;10.30;;
47089;SDS011;32840;52.516;13.294;2022-07-21T07:54:19;14.68;;;11.15;;
47089;SDS011;32840;52.516;13.294;2022-07-21T07:57:04;16.05;;;12.80;;
47089;SDS011;32840;52.516;13.294;2022-07-21T07:59:49;16.70;;;12.05;;
47089;SDS011;32840;52.516;13.294;2022-07-21T08:02:34;12.70;;;10.93;;
47089;SDS011;32840;52.516;13.294;2022-07-21T08:05:20;12.68;;;10.90;;
47089;SDS011;32840;52.516;13.294;2022-07-21T08:08:05;15.75;;;11.20;;
47089;SDS011;32840;52.516;13.294;2022-07-21T08:10:50;15.35;;;11.15;;
47089;SDS011;32840;52.516;13.294;2022-07-21T08:13:35;12.40;;;10.02;;
47089;SDS011;32840;52.516;13.294;2022-07-21T08:16:21;14.80;;;10.65;;
47089;SDS011;32840;52.516;13.294;2022-07-21T08:19:06;14.57;;;11.75;;
47089;SDS011;32840;52.516;13.294;2022-07-21T08:21:51;13.90;;;10.95;;
47089;SDS011;32840;52.516;13.294;2022-07-21T08:24:36;16.58;;;11.75;;
47089;SDS011;32840;52.516;13.294;2022-07-21T08:27:22;12.63;;;9.77;;
47089;SDS011;32840;52.516;13.294;2022-07-21T08:30:09;14.98;;;10.63;;
47089;SDS011;32840;52.516;13.294;2022-07-21T08:32:54;13.55;;;10.70;;
47089;SDS011;32840;52.516;13.294;2022-07-21T08:35:42;14.30;;;10.80;;
47089;SDS011;32840;52.516;13.294;2022-07-21T08:38:28;14.88;;;10.68;;
47089;SDS011;32840;52.516;13.294;2022-07-21T08:41:14;16.10;;;10.98;;
47089;SDS011;32840;52.516;13.294;2022-07-21T08:44:00;15.80;;;11.05;;
47089;SDS011;32840;52.516;13.294;2022-07-21T08:46:49;11.40;;;10.02;;
47089;SDS011;32840;52.516;13.294;2022-07-21T08:49:36;16.65;;;10.98;;
47089;SDS011;32840;52.516;13.294;2022-07-21T08:52:21;12.43;;;10.13;;
47089;SDS011;32840;52.516;13.294;2022-07-21T08:55:06;12.52;;;10.18;;
47089;SDS011;32840;52.516;13.294;2022-07-21T08:57:52;16.00;;;10.38;;
47089;SDS011;32840;52.516;13.294;2022-07-21T09:00:38;12.90;;;9.57;;
47089;SDS011;32840;52.516;13.294;2022-07-21T09:03:27;11.30;;;9.20;;
47089;SDS011;32840;52.516;13.294;2022-07-21T09:06:14;10.43;;;9.15;;
47089;SDS011;32840;52.516;13.294;2022-07-21T09:09:00;11.18;;;9.40;;
47089;SDS011;32840;52.516;13.294;2022-07-21T09:11:45;12.00;;;9.55;;
47089;SDS011;32840;52.516;13.294;2022-07-21T09:14:31;13.45;;;9.98;;
47089;SDS011;32840;52.516;13.294;2022-07-21T09:17:17;11.27;;;9.10;;
47089;SDS011;32840;52.516;13.294;2022-07-21T09:20:03;12.30;;;9.63;;
47089;SDS011;32840;52.516;13.294;2022-07-21T09:25:55;10.82;;;9.02;;
47089;SDS011;32840;52.516;13.294;2022-07-21T09:28:41;9.60;;;8.13;;
47089;SDS011;32840;52.516;13.294;2022-07-21T09:31:27;11.02;;;9.10;;
47089;SDS011;32840;52.516;13.294;2022-07-21T09:34:15;10.05;;;8.88;;
47089;SDS011;32840;52.516;13.294;2022-07-21T09:36:59;9.85;;;8.60;;
47089;SDS011;32840;52.516;13.294;2022-07-21T09:43:05;9.63;;;7.75;;
47089;SDS011;32840;52.516;13.294;2022-07-21T09:45:50;11.00;;;9.30;;
47089;SDS011;32840;52.516;13.294;2022-07-21T09:48:37;8.35;;;7.55;;
47089;SDS011;32840;52.516;13.294;2022-07-21T09:51:31;11.07;;;7.60;;
47089;SDS011;32840;52.516;13.294;2022-07-21T09:54:18;8.32;;;7.47;;
47089;SDS011;32840;52.516;13.294;2022-07-21T09:57:03;12.57;;;8.07;;
47089;SDS011;32840;52.516;13.294;2022-07-21T09:59:49;9.68;;;7.45;;
47089;SDS011;32840;52.516;13.294;2022-07-21T10:02:35;12.07;;;7.78;;
47089;SDS011;32840;52.516;13.294;2022-07-21T10:05:20;10.95;;;7.50;;
47089;SDS011;32840;52.516;13.294;2022-07-21T10:08:05;9.95;;;8.25;;
47089;SDS011;32840;52.516;13.294;2022-07-21T10:10:50;8.38;;;6.88;;
47089;SDS011;32840;52.516;13.294;2022-07-21T10:13:43;8.77;;;7.22;;
47089;SDS011;32840;52.516;13.294;2022-07-21T10:16:29;8.32;;;6.35;;
47089;SDS011;32840;52.516;13.294;2022-07-21T10:19:26;12.55;;;8.52;;
47089;SDS011;32840;52.516;13.294;2022-07-21T10:25:18;6.95;;;6.00;;
47089;SDS011;32840;52.516;13.294;2022-07-21T10:28:19;10.93;;;8.50;;
47089;SDS011;32840;52.516;13.294;2022-07-21T10:34:04;8.93;;;6.18;;
47089;SDS011;32840;52.516;13.294;2022-07-21T10:36:50;7.88;;;6.60;;
47089;SDS011;32840;52.516;13.294;2022-07-21T10:39:34;12.18;;;6.35;;
47089;SDS011;32840;52.516;13.294;2022-07-21T10:42:19;9.18;;;6.57;;
47089;SDS011;32840;52.516;13.294;2022-07-21T10:45:16;9.02;;;6.50;;
47089;SDS011;32840;52.516;13.294;2022-07-21T10:51:22;9.05;;;5.90;;
47089;SDS011;32840;52.516;13.294;2022-07-21T10:54:19;9.18;;;6.45;;
47089;SDS011;32840;52.516;13.294;2022-07-21T10:57:23;10.80;;;6.00;;
47089;SDS011;32840;52.516;13.294;2022-07-21T11:00:16;10.43;;;5.82;;
47089;SDS011;32840;52.516;13.294;2022-07-21T11:06:21;7.10;;;5.30;;
47089;SDS011;32840;52.516;13.294;2022-07-21T11:09:16;9.02;;;5.93;;
47089;SDS011;32840;52.516;13.294;2022-07-21T11:12:04;9.77;;;5.43;;
47089;SDS011;32840;52.516;13.294;2022-07-21T11:14:50;7.78;;;5.20;;
47089;SDS011;32840;52.516;13.294;2022-07-21T11:17:35;10.05;;;5.72;;
47089;SDS011;32840;52.516;13.294;2022-07-21T11:20:23;8.10;;;5.00;;
47089;SDS011;32840;52.516;13.294;2022-07-21T11:23:08;9.73;;;6.15;;
47089;SDS011;32840;52.516;13.294;2022-07-21T11:25:53;9.23;;;5.28;;
47089;SDS011;32840;52.516;13.294;2022-07-21T11:28:39;7.93;;;5.30;;
47089;SDS011;32840;52.516;13.294;2022-07-21T11:31:23;6.93;;;4.90;;
47089;SDS011;32840;52.516;13.294;2022-07-21T11:34:08;9.88;;;5.57;;
47089;SDS011;32840;52.516;13.294;2022-07-21T11:37:00;6.47;;;5.35;;
47089;SDS011;32840;52.516;13.294;2022-07-21T11:39:47;10.27;;;5.88;;
47089;SDS011;32840;52.516;13.294;2022-07-21T11:42:33;11.52;;;5.35;;
47089;SDS011;32840;52.516;13.294;2022-07-21T11:45:22;8.90;;;5.60;;
47089;SDS011;32840;52.516;13.294;2022-07-21T11:48:09;8.40;;;6.18;;
47089;SDS011;32840;52.516;13.294;2022-07-21T11:51:01;8.63;;;6.00;;
47089;SDS011;32840;52.516;13.294;2022-07-21T11:53:48;9.15;;;5.85;;
47089;SDS011;32840;52.516;13.294;2022-07-21T11:56:40;9.57;;;5.55;;
47089;SDS011;32840;52.516;13.294;2022-07-21T11:59:25;8.07;;;5.70;;
47089;SDS011;32840;52.516;13.294;2022-07-21T12:05:05;10.68;;;6.35;;
47089;SDS011;32840;52.516;13.294;2022-07-21T12:07:53;6.65;;;5.78;;
47089;SDS011;32840;52.516;13.294;2022-07-21T12:10:38;9.32;;;5.82;;
47089;SDS011;32840;52.516;13.294;2022-07-21T12:13:23;6.53;;;5.18;;
47089;SDS011;32840;52.516;13.294;2022-07-21T12:16:08;10.57;;;5.57;;
47089;SDS011;32840;52.516;13.294;2022-07-21T12:19:10;13.13;;;6.97;;
47089;SDS011;32840;52.516;13.294;2022-07-21T12:21:56;8.98;;;6.13;;
47089;SDS011;32840;52.516;13.294;2022-07-21T12:27:53;8.50;;;5.93;;
47089;SDS011;32840;52.516;13.294;2022-07-21T12:30:49;9.13;;;6.35;;
47089;SDS011;32840;52.516;13.294;2022-07-21T12:33:34;10.23;;;6.32;;
47089;SDS011;32840;52.516;13.294;2022-07-21T12:36:20;9.68;;;7.07;;
47089;SDS011;32840;52.516;13.294;2022-07-21T12:39:18;8.35;;;6.10;;
47089;SDS011;32840;52.516;13.294;2022-07-21T12:42:28;10.85;;;6.55;;
47089;SDS011;32840;52.516;13.294;2022-07-21T12:45:20;10.82;;;6.30;;
47089;SDS011;32840;52.516;13.294;2022-07-21T12:48:10;8.80;;;6.63;;
47089;SDS011;32840;52.516;13.294;2022-07-21T12:56:36;8.48;;;6.55;;
47089;SDS011;32840;52.516;13.294;2022-07-21T12:59:23;11.02;;;8.25;;
47089;SDS011;32840;52.516;13.294;2022-07-21T13:02:08;9.45;;;6.80;;
47089;SDS011;32840;52.516;13.294;2022-07-21T13:04:53;9.95;;;6.93;;
47089;SDS011;32840;52.516;13.294;2022-07-21T13:07:38;7.97;;;5.93;;
47089;SDS011;32840;52.516;13.294;2022-07-21T13:10:24;11.82;;;7.60;;
47089;SDS011;32840;52.516;13.294;2022-07-21T13:13:08;7.80;;;6.93;;
47089;SDS011;32840;52.516;13.294;2022-07-21T13:15:55;10.52;;;6.80;;
47089;SDS011;32840;52.516;13.294;2022-07-21T13:18:40;10.65;;;7.10;;
47089;SDS011;32840;52.516;13.294;2022-07-21T13:21:25;8.00;;;6.72;;
47089;SDS011;32840;52.516;13.294;2022-07-21T13:24:10;6.68;;;6.07;;
47089;SDS011;32840;52.516;13.294;2022-07-21T13:26:54;9.68;;;6.95;;
47089;SDS011;32840;52.516;13.294;2022-07-21T13:29:39;10.80;;;6.22;;
47089;SDS011;32840;52.516;13.294;2022-07-21T13:32:24;10.57;;;5.95;;
47089;SDS011;32840;52.516;13.294;2022-07-21T13:35:11;11.02;;;6.20;;
47089;SDS011;32840;52.516;13.294;2022-07-21T13:37:56;9.95;;;6.53;;
47089;SDS011;32840;52.516;13.294;2022-07-21T13:40:42;7.55;;;6.25;;
47089;SDS011;32840;52.516;13.294;2022-07-21T13:43:26;7.40;;;6.25;;
47089;SDS011;32840;52.516;13.294;2022-07-21T13:46:11;7.25;;;5.70;;
47089;SDS011;32840;52.516;13.294;2022-07-21T13:48:56;9.90;;;6.75;;
47089;SDS011;32840;52.516;13.294;2022-07-21T13:51:41;7.97;;;6.50;;
47089;SDS011;32840;52.516;13.294;2022-07-21T13:54:27;8.98;;;6.07;;
47089;SDS011;32840;52.516;13.294;2022-07-21T13:57:12;6.80;;;6.10;;
47089;SDS011;32840;52.516;13.294;2022-07-21T13:59:58;8.63;;;6.47;;
47089;SDS011;32840;52.516;13.294;2022-07-21T14:02:43;10.20;;;6.32;;
47089;SDS011;32840;52.516;13.294;2022-07-21T14:05:27;8.40;;;6.75;;
47089;SDS011;32840;52.516;13.294;2022-07-21T14:08:14;7.63;;;5.80;;
47089;SDS011;32840;52.516;13.294;2022-07-21T14:10:58;7.63;;;5.43;;
47089;SDS011;32840;52.516;13.294;2022-07-21T14:13:45;9.57;;;6.22;;
47089;SDS011;32840;52.516;13.294;2022-07-21T14:16:29;6.30;;;5.32;;
47089;SDS011;32840;52.516;13.294;2022-07-21T14:19:15;7.35;;;5.75;;
47089;SDS011;32840;52.516;13.294;2022-07-21T14:22:00;7.65;;;6.00;;
47089;SDS011;32840;52.516;13.294;2022-07-21T14:24:45;6.78;;;5.05;;
47089;SDS011;32840;52.516;13.294;2022-07-21T14:27:50;6.63;;;5.45;;
47089;SDS011;32840;52.516;13.294;2022-07-21T14:30:38;11.53;;;5.93;;
47089;SDS011;32840;52.516;13.294;2022-07-21T14:33:23;9.18;;;5.38;;
47089;SDS011;32840;52.516;13.294;2022-07-21T14:36:09;8.95;;;5.85;;
47089;SDS011;32840;52.516;13.294;2022-07-21T14:38:54;8.02;;;5.70;;
47089;SDS011;32840;52.516;13.294;2022-07-21T14:41:39;8.10;;;5.68;;
47089;SDS011;32840;52.516;13.294;2022-07-21T14:44:24;8.38;;;5.68;;
47089;SDS011;32840;52.516;13.294;2022-07-21T14:47:10;6.15;;;5.65;;
47089;SDS011;32840;52.516;13.294;2022-07-21T14:49:55;6.85;;;6.15;;
47089;SDS011;32840;52.516;13.294;2022-07-21T14:52:40;5.75;;;5.15;;
47089;SDS011;32840;52.516;13.294;2022-07-21T14:55:27;8.10;;;5.75;;
47089;SDS011;32840;52.516;13.294;2022-07-21T14:58:14;7.07;;;5.90;;
47089;SDS011;32840;52.516;13.294;2022-07-21T15:00:59;7.63;;;5.35;;
47089;SDS011;32840;52.516;13.294;2022-07-21T15:03:44;8.85;;;7.22;;
47089;SDS011;32840;52.516;13.294;2022-07-21T15:06:29;8.25;;;7.45;;
47089;SDS011;32840;52.516;13.294;2022-07-21T15:09:15;6.45;;;5.43;;
47089;SDS011;32840;52.516;13.294;2022-07-21T15:12:00;6.03;;;5.40;;
47089;SDS011;32840;52.516;13.294;2022-07-21T15:14:45;6.78;;;5.03;;
47089;SDS011;32840;52.516;13.294;2022-07-21T15:17:30;7.68;;;5.80;;
47089;SDS011;32840;52.516;13.294;2022-07-21T15:20:16;7.55;;;5.50;;
47089;SDS011;32840;52.516;13.294;2022-07-21T15:23:02;6.60;;;5.43;;
47089;SDS011;32840;52.516;13.294;2022-07-21T15:25:52;6.20;;;5.60;;
47089;SDS011;32840;52.516;13.294;2022-07-21T15:28:38;6.57;;;5.32;;
47089;SDS011;32840;52.516;13.294;2022-07-21T15:31:24;5.07;;;4.57;;
47089;SDS011;32840;52.516;13.294;2022-07-21T15:34:08;7.72;;;5.30;;
47089;SDS011;32840;52.516;13.294;2022-07-21T15:36:53;10.80;;;6.75;;
47089;SDS011;32840;52.516;13.294;2022-07-21T15:39:39;7.05;;;5.88;;
47089;SDS011;32840;52.516;13.294;2022-07-21T15:42:27;6.80;;;5.97;;
47089;SDS011;32840;52.516;13.294;2022-07-21T15:45:15;8.27;;;6.10;;
47089;SDS011;32840;52.516;13.294;2022-07-21T15:48:00;8.20;;;5.82;;
47089;SDS011;32840;52.516;13.294;2022-07-21T15:50:46;7.40;;;6.10;;
47089;SDS011;32840;52.516;13.294;2022-07-21T15:53:31;9.98;;;6.50;;
47089;SDS011;32840;52.516;13.294;2022-07-21T15:56:16;8.38;;;6.50;;
47089;SDS011;32840;52.516;13.294;2022-07-21T15:59:01;7.60;;;6.90;;
47089;SDS011;32840;52.516;13.294;2022-07-21T16:02:09;7.53;;;6.75;;
47089;SDS011;32840;52.516;13.294;2022-07-21T16:04:58;8.35;;;6.97;;
47089;SDS011;32840;52.516;13.294;2022-07-21T16:07:44;7.22;;;6.05;;
47089;SDS011;32840;52.516;13.294;2022-07-21T16:10:30;9.43;;;7.07;;
47089;SDS011;32840;52.516;13.294;2022-07-21T16:13:15;8.98;;;6.65;;
47089;SDS011;32840;52.516;13.294;2022-07-21T16:16:00;8.10;;;6.47;;
47089;SDS011;32840;52.516;13.294;2022-07-21T16:18:44;10.32;;;7.47;;
47089;SDS011;32840;52.516;13.294;2022-07-21T16:21:31;7.68;;;6.80;;
47089;SDS011;32840;52.516;13.294;2022-07-21T16:24:16;7.30;;;6.57;;
47089;SDS011;32840;52.516;13.294;2022-07-21T16:27:01;8.52;;;7.18;;
47089;SDS011;32840;52.516;13.294;2022-07-21T16:29:46;9.10;;;7.50;;
47089;SDS011;32840;52.516;13.294;2022-07-21T16:32:31;8.73;;;7.45;;
47089;SDS011;32840;52.516;13.294;2022-07-21T16:35:15;10.40;;;7.90;;
47089;SDS011;32840;52.516;13.294;2022-07-21T16:38:00;10.68;;;7.50;;
47089;SDS011;32840;52.516;13.294;2022-07-21T16:40:46;8.48;;;7.63;;
47089;SDS011;32840;52.516;13.294;2022-07-21T16:43:31;9.95;;;8.02;;
47089;SDS011;32840;52.516;13.294;2022-07-21T16:46:16;8.15;;;7.35;;
47089;SDS011;32840;52.516;13.294;2022-07-21T16:49:00;9.63;;;7.07;;